sensor_id;sensor_type;location;lat;lon;timestamp;P1;durP1;ratioP1;P2;durP2;ratioP2
31764;SDS011;18338;53.240;8.798;2023-05-10T00:00:23;5.35;;;4.70;;
31764;SDS011;18338;53.240;8.798;2023-05-10T00:02:50;5.20;;;4.75;;
31764;SDS011;18338;53.240;8.798;2023-05-10T00:05:17;4.50;;;4.10;;
31764;SDS011;18338;53.240;8.798;2023-05-10T00:07:44;3.65;;;3.35;;
31764;SDS011;18338;53.240;8.798;2023-05-10T00:10:11;3.92;;;3.53;;
31764;SDS011;18338;53.240;8.798;2023-05-10T00:12:38;4.95;;;3.45;;
31764;SDS011;18338;53.240;8.798;2023-05-10T00:15:04;3.75;;;3.13;;
31764;SDS011;18338;53.240;8.798;2023-05-10T00:17:32;3.80;;;3.03;;
31764;SDS011;18338;53.240;8.798;2023-05-10T00:19:59;2.97;;;2.67;;
31764;SDS011;18338;53.240;8.798;2023-05-10T00:22:26;3.88;;;2.90;;
31764;SDS011;18338;53.240;8.798;2023-05-10T00:24:53;5.18;;;2.45;;
31764;SDS011;18338;53.240;8.798;2023-05-10T00:27:19;2.88;;;2.58;;
31764;SDS011;18338;53.240;8.798;2023-05-10T00:29:46;4.80;;;2.45;;
31764;SDS011;18338;53.240;8.798;2023-05-10T00:32:13;2.83;;;2.03;;
31764;SDS011;18338;53.240;8.798;2023-05-10T00:34:40;2.70;;;2.25;;
31764;SDS011;18338;53.240;8.798;2023-05-10T00:37:07;2.97;;;2.25;;
31764;SDS011;18338;53.240;8.798;2023-05-10T00:39:34;2.70;;;2.25;;
31764;SDS011;18338;53.240;8.798;2023-05-10T00:42:00;2.72;;;2.47;;
31764;SDS011;18338;53.240;8.798;2023-05-10T00:44:27;3.17;;;2.28;;
31764;SDS011;18338;53.240;8.798;2023-05-10T00:46:54;3.97;;;2.20;;
31764;SDS011;18338;53.240;8.798;2023-05-10T00:49:21;2.45;;;2.25;;
31764;SDS011;18338;53.240;8.798;2023-05-10T00:51:48;4.63;;;2.38;;
31764;SDS011;18338;53.240;8.798;2023-05-10T00:54:15;2.58;;;2.38;;
31764;SDS011;18338;53.240;8.798;2023-05-10T00:56:42;2.67;;;2.40;;
31764;SDS011;18338;53.240;8.798;2023-05-10T00:59:17;3.70;;;2.20;;
31764;SDS011;18338;53.240;8.798;2023-05-10T01:01:45;4.38;;;2.13;;
31764;SDS011;18338;53.240;8.798;2023-05-10T01:04:13;3.45;;;2.00;;
31764;SDS011;18338;53.240;8.798;2023-05-10T01:06:43;3.00;;;2.10;;
31764;SDS011;18338;53.240;8.798;2023-05-10T01:09:10;3.17;;;1.85;;
31764;SDS011;18338;53.240;8.798;2023-05-10T01:11:38;3.63;;;2.35;;
31764;SDS011;18338;53.240;8.798;2023-05-10T01:14:05;3.22;;;1.90;;
31764;SDS011;18338;53.240;8.798;2023-05-10T01:16:34;2.20;;;1.80;;
31764;SDS011;18338;53.240;8.798;2023-05-10T01:19:17;2.35;;;2.13;;
31764;SDS011;18338;53.240;8.798;2023-05-10T01:21:49;2.33;;;1.67;;
31764;SDS011;18338;53.240;8.798;2023-05-10T01:27:20;3.55;;;1.75;;
31764;SDS011;18338;53.240;8.798;2023-05-10T01:32:52;2.28;;;2.08;;
31764;SDS011;18338;53.240;8.798;2023-05-10T01:35:30;2.83;;;1.90;;
31764;SDS011;18338;53.240;8.798;2023-05-10T01:38:04;2.53;;;1.90;;
31764;SDS011;18338;53.240;8.798;2023-05-10T01:40:40;1.83;;;1.60;;
31764;SDS011;18338;53.240;8.798;2023-05-10T01:43:17;1.92;;;1.73;;
31764;SDS011;18338;53.240;8.798;2023-05-10T01:45:59;2.40;;;2.08;;
31764;SDS011;18338;53.240;8.798;2023-05-10T01:48:26;3.13;;;1.73;;
31764;SDS011;18338;53.240;8.798;2023-05-10T01:50:55;2.38;;;2.10;;
31764;SDS011;18338;53.240;8.798;2023-05-10T01:53:23;1.90;;;1.80;;
31764;SDS011;18338;53.240;8.798;2023-05-10T01:55:52;3.15;;;1.88;;
31764;SDS011;18338;53.240;8.798;2023-05-10T01:58:21;3.08;;;2.20;;
31764;SDS011;18338;53.240;8.798;2023-05-10T02:00:53;3.95;;;1.88;;
31764;SDS011;18338;53.240;8.798;2023-05-10T02:03:21;2.33;;;2.13;;
31764;SDS011;18338;53.240;8.798;2023-05-10T02:05:51;2.47;;;2.20;;
31764;SDS011;18338;53.240;8.798;2023-05-10T02:08:20;2.00;;;1.80;;
31764;SDS011;18338;53.240;8.798;2023-05-10T02:10:49;2.47;;;2.05;;
31764;SDS011;18338;53.240;8.798;2023-05-10T02:13:18;2.45;;;2.00;;
31764;SDS011;18338;53.240;8.798;2023-05-10T02:15:46;3.45;;;1.92;;
31764;SDS011;18338;53.240;8.798;2023-05-10T02:18:15;4.65;;;2.40;;
31764;SDS011;18338;53.240;8.798;2023-05-10T02:20:47;5.65;;;2.55;;
31764;SDS011;18338;53.240;8.798;2023-05-10T02:23:14;5.00;;;2.88;;
31764;SDS011;18338;53.240;8.798;2023-05-10T02:25:43;2.67;;;2.47;;
31764;SDS011;18338;53.240;8.798;2023-05-10T02:28:11;2.55;;;1.80;;
31764;SDS011;18338;53.240;8.798;2023-05-10T02:30:39;2.20;;;2.00;;
31764;SDS011;18338;53.240;8.798;2023-05-10T02:33:07;4.53;;;2.20;;
31764;SDS011;18338;53.240;8.798;2023-05-10T02:35:34;2.92;;;2.30;;
31764;SDS011;18338;53.240;8.798;2023-05-10T02:38:02;3.15;;;2.25;;
31764;SDS011;18338;53.240;8.798;2023-05-10T02:40:31;2.47;;;2.28;;
31764;SDS011;18338;53.240;8.798;2023-05-10T02:42:59;2.60;;;2.40;;
31764;SDS011;18338;53.240;8.798;2023-05-10T02:45:29;2.50;;;2.10;;
31764;SDS011;18338;53.240;8.798;2023-05-10T02:47:57;2.33;;;2.05;;
31764;SDS011;18338;53.240;8.798;2023-05-10T02:50:25;3.00;;;2.65;;
31764;SDS011;18338;53.240;8.798;2023-05-10T02:52:56;2.47;;;2.22;;
31764;SDS011;18338;53.240;8.798;2023-05-10T02:55:30;2.65;;;2.40;;
31764;SDS011;18338;53.240;8.798;2023-05-10T02:58:01;3.67;;;2.50;;
31764;SDS011;18338;53.240;8.798;2023-05-10T03:00:28;2.90;;;2.58;;
31764;SDS011;18338;53.240;8.798;2023-05-10T03:02:55;2.50;;;2.30;;
31764;SDS011;18338;53.240;8.798;2023-05-10T03:05:22;2.60;;;2.17;;
31764;SDS011;18338;53.240;8.798;2023-05-10T03:07:50;2.55;;;2.35;;
31764;SDS011;18338;53.240;8.798;2023-05-10T03:10:17;3.70;;;2.58;;
31764;SDS011;18338;53.240;8.798;2023-05-10T03:12:52;3.35;;;2.50;;
31764;SDS011;18338;53.240;8.798;2023-05-10T03:15:40;5.65;;;2.80;;
31764;SDS011;18338;53.240;8.798;2023-05-10T03:18:22;2.45;;;2.25;;
31764;SDS011;18338;53.240;8.798;2023-05-10T03:20:57;2.45;;;2.25;;
31764;SDS011;18338;53.240;8.798;2023-05-10T03:23:34;2.47;;;2.20;;
31764;SDS011;18338;53.240;8.798;2023-05-10T03:26:07;3.17;;;2.42;;
31764;SDS011;18338;53.240;8.798;2023-05-10T03:28:34;2.65;;;2.45;;
31764;SDS011;18338;53.240;8.798;2023-05-10T03:31:02;4.40;;;2.67;;
31764;SDS011;18338;53.240;8.798;2023-05-10T03:33:30;4.07;;;2.50;;
31764;SDS011;18338;53.240;8.798;2023-05-10T03:35:57;2.80;;;2.60;;
31764;SDS011;18338;53.240;8.798;2023-05-10T03:38:24;2.60;;;2.30;;
31764;SDS011;18338;53.240;8.798;2023-05-10T03:40:53;2.60;;;2.33;;
31764;SDS011;18338;53.240;8.798;2023-05-10T03:43:20;4.65;;;2.33;;
31764;SDS011;18338;53.240;8.798;2023-05-10T03:45:46;2.55;;;2.35;;
31764;SDS011;18338;53.240;8.798;2023-05-10T03:48:13;2.55;;;2.35;;
31764;SDS011;18338;53.240;8.798;2023-05-10T03:50:40;2.40;;;2.20;;
31764;SDS011;18338;53.240;8.798;2023-05-10T03:53:06;2.83;;;2.53;;
31764;SDS011;18338;53.240;8.798;2023-05-10T03:55:33;3.95;;;2.35;;
31764;SDS011;18338;53.240;8.798;2023-05-10T03:58:02;3.53;;;2.45;;
31764;SDS011;18338;53.240;8.798;2023-05-10T04:00:28;3.03;;;2.38;;
31764;SDS011;18338;53.240;8.798;2023-05-10T04:02:56;2.95;;;2.35;;
31764;SDS011;18338;53.240;8.798;2023-05-10T04:05:23;2.78;;;2.53;;
31764;SDS011;18338;53.240;8.798;2023-05-10T04:07:50;2.53;;;2.33;;
31764;SDS011;18338;53.240;8.798;2023-05-10T04:10:17;3.60;;;2.50;;
31764;SDS011;18338;53.240;8.798;2023-05-10T04:12:44;3.10;;;2.80;;
31764;SDS011;18338;53.240;8.798;2023-05-10T04:15:11;3.05;;;2.60;;
31764;SDS011;18338;53.240;8.798;2023-05-10T04:17:37;2.95;;;2.72;;
31764;SDS011;18338;53.240;8.798;2023-05-10T04:20:04;2.90;;;2.60;;
31764;SDS011;18338;53.240;8.798;2023-05-10T04:22:32;2.90;;;2.60;;
31764;SDS011;18338;53.240;8.798;2023-05-10T04:24:59;3.20;;;2.90;;
31764;SDS011;18338;53.240;8.798;2023-05-10T04:27:25;3.55;;;3.10;;
31764;SDS011;18338;53.240;8.798;2023-05-10T04:29:52;3.15;;;2.85;;
31764;SDS011;18338;53.240;8.798;2023-05-10T04:32:19;3.25;;;2.78;;
31764;SDS011;18338;53.240;8.798;2023-05-10T04:34:46;3.63;;;2.80;;
31764;SDS011;18338;53.240;8.798;2023-05-10T04:37:13;4.25;;;3.35;;
31764;SDS011;18338;53.240;8.798;2023-05-10T04:39:40;11.50;;;3.70;;
31764;SDS011;18338;53.240;8.798;2023-05-10T04:42:07;3.30;;;3.00;;
31764;SDS011;18338;53.240;8.798;2023-05-10T04:44:34;3.85;;;3.55;;
31764;SDS011;18338;53.240;8.798;2023-05-10T04:47:01;3.90;;;3.60;;
31764;SDS011;18338;53.240;8.798;2023-05-10T04:49:29;4.47;;;3.50;;
31764;SDS011;18338;53.240;8.798;2023-05-10T04:51:56;5.45;;;3.90;;
31764;SDS011;18338;53.240;8.798;2023-05-10T04:54:22;4.22;;;3.83;;
31764;SDS011;18338;53.240;8.798;2023-05-10T04:56:49;4.55;;;3.63;;
31764;SDS011;18338;53.240;8.798;2023-05-10T04:59:16;6.63;;;4.20;;
31764;SDS011;18338;53.240;8.798;2023-05-10T05:01:43;4.78;;;4.38;;
31764;SDS011;18338;53.240;8.798;2023-05-10T05:04:09;7.22;;;4.65;;
31764;SDS011;18338;53.240;8.798;2023-05-10T05:06:36;4.70;;;4.30;;
31764;SDS011;18338;53.240;8.798;2023-05-10T05:09:03;6.10;;;4.30;;
31764;SDS011;18338;53.240;8.798;2023-05-10T05:11:29;6.55;;;4.57;;
31764;SDS011;18338;53.240;8.798;2023-05-10T05:13:56;5.38;;;4.38;;
31764;SDS011;18338;53.240;8.798;2023-05-10T05:16:24;5.35;;;4.57;;
31764;SDS011;18338;53.240;8.798;2023-05-10T05:18:51;5.38;;;4.75;;
31764;SDS011;18338;53.240;8.798;2023-05-10T05:21:19;4.88;;;4.40;;
31764;SDS011;18338;53.240;8.798;2023-05-10T05:23:46;5.13;;;4.45;;
31764;SDS011;18338;53.240;8.798;2023-05-10T05:26:13;24.63;;;5.85;;
31764;SDS011;18338;53.240;8.798;2023-05-10T05:28:41;6.53;;;5.20;;
31764;SDS011;18338;53.240;8.798;2023-05-10T05:31:07;5.93;;;5.32;;
31764;SDS011;18338;53.240;8.798;2023-05-10T05:33:34;7.03;;;5.80;;
31764;SDS011;18338;53.240;8.798;2023-05-10T05:36:02;5.82;;;5.32;;
31764;SDS011;18338;53.240;8.798;2023-05-10T05:38:30;8.60;;;5.78;;
31764;SDS011;18338;53.240;8.798;2023-05-10T05:40:57;7.85;;;5.88;;
31764;SDS011;18338;53.240;8.798;2023-05-10T05:43:24;6.78;;;6.00;;
31764;SDS011;18338;53.240;8.798;2023-05-10T05:45:54;6.43;;;5.82;;
31764;SDS011;18338;53.240;8.798;2023-05-10T05:48:22;7.13;;;6.43;;
31764;SDS011;18338;53.240;8.798;2023-05-10T05:50:48;10.90;;;6.40;;
31764;SDS011;18338;53.240;8.798;2023-05-10T05:53:15;6.50;;;5.88;;
31764;SDS011;18338;53.240;8.798;2023-05-10T05:55:54;6.88;;;6.28;;
31764;SDS011;18338;53.240;8.798;2023-05-10T05:58:22;6.80;;;6.20;;
31764;SDS011;18338;53.240;8.798;2023-05-10T06:00:49;7.63;;;6.75;;
31764;SDS011;18338;53.240;8.798;2023-05-10T06:03:18;7.07;;;6.38;;
31764;SDS011;18338;53.240;8.798;2023-05-10T06:05:45;8.07;;;6.22;;
31764;SDS011;18338;53.240;8.798;2023-05-10T06:08:11;7.57;;;6.80;;
31764;SDS011;18338;53.240;8.798;2023-05-10T06:10:38;7.35;;;6.65;;
31764;SDS011;18338;53.240;8.798;2023-05-10T06:13:05;9.55;;;7.00;;
31764;SDS011;18338;53.240;8.798;2023-05-10T06:15:31;7.68;;;6.80;;
31764;SDS011;18338;53.240;8.798;2023-05-10T06:17:58;6.82;;;6.22;;
31764;SDS011;18338;53.240;8.798;2023-05-10T06:20:25;8.02;;;6.35;;
31764;SDS011;18338;53.240;8.798;2023-05-10T06:22:52;7.88;;;7.07;;
31764;SDS011;18338;53.240;8.798;2023-05-10T06:25:19;7.03;;;6.43;;
31764;SDS011;18338;53.240;8.798;2023-05-10T06:27:45;6.90;;;6.30;;
31764;SDS011;18338;53.240;8.798;2023-05-10T06:30:18;6.93;;;6.32;;
31764;SDS011;18338;53.240;8.798;2023-05-10T06:32:45;7.65;;;6.90;;
31764;SDS011;18338;53.240;8.798;2023-05-10T06:35:12;8.35;;;7.47;;
31764;SDS011;18338;53.240;8.798;2023-05-10T06:37:38;8.00;;;7.18;;
31764;SDS011;18338;53.240;8.798;2023-05-10T06:40:06;8.30;;;7.50;;
31764;SDS011;18338;53.240;8.798;2023-05-10T06:42:33;7.90;;;7.20;;
31764;SDS011;18338;53.240;8.798;2023-05-10T06:45:00;8.30;;;7.50;;
31764;SDS011;18338;53.240;8.798;2023-05-10T06:47:26;7.97;;;7.20;;
31764;SDS011;18338;53.240;8.798;2023-05-10T06:49:53;9.38;;;7.78;;
31764;SDS011;18338;53.240;8.798;2023-05-10T06:52:20;9.25;;;8.27;;
31764;SDS011;18338;53.240;8.798;2023-05-10T06:54:47;10.88;;;8.65;;
31764;SDS011;18338;53.240;8.798;2023-05-10T06:57:13;9.48;;;8.50;;
31764;SDS011;18338;53.240;8.798;2023-05-10T06:59:56;10.20;;;8.70;;
31764;SDS011;18338;53.240;8.798;2023-05-10T07:02:23;8.98;;;8.13;;
31764;SDS011;18338;53.240;8.798;2023-05-10T07:04:49;10.40;;;9.30;;
31764;SDS011;18338;53.240;8.798;2023-05-10T07:07:18;9.55;;;8.55;;
31764;SDS011;18338;53.240;8.798;2023-05-10T07:09:45;9.95;;;8.95;;
31764;SDS011;18338;53.240;8.798;2023-05-10T07:12:11;11.18;;;10.07;;
31764;SDS011;18338;53.240;8.798;2023-05-10T07:14:40;11.55;;;9.75;;
31764;SDS011;18338;53.240;8.798;2023-05-10T07:17:07;11.27;;;10.02;;
31764;SDS011;18338;53.240;8.798;2023-05-10T07:19:34;12.00;;;10.63;;
31764;SDS011;18338;53.240;8.798;2023-05-10T07:22:01;11.45;;;10.25;;
31764;SDS011;18338;53.240;8.798;2023-05-10T07:24:28;11.55;;;10.45;;
31764;SDS011;18338;53.240;8.798;2023-05-10T07:26:55;11.55;;;10.35;;
31764;SDS011;18338;53.240;8.798;2023-05-10T07:29:22;13.05;;;10.35;;
31764;SDS011;18338;53.240;8.798;2023-05-10T07:31:48;11.75;;;10.55;;
31764;SDS011;18338;53.240;8.798;2023-05-10T07:34:15;12.38;;;10.60;;
31764;SDS011;18338;53.240;8.798;2023-05-10T07:36:42;12.88;;;10.43;;
31764;SDS011;18338;53.240;8.798;2023-05-10T07:39:09;11.18;;;10.07;;
31764;SDS011;18338;53.240;8.798;2023-05-10T07:41:39;12.00;;;10.60;;
31764;SDS011;18338;53.240;8.798;2023-05-10T07:44:06;11.25;;;10.15;;
31764;SDS011;18338;53.240;8.798;2023-05-10T07:46:33;10.95;;;9.95;;
31764;SDS011;18338;53.240;8.798;2023-05-10T07:49:00;10.75;;;9.70;;
31764;SDS011;18338;53.240;8.798;2023-05-10T07:51:27;9.05;;;8.25;;
31764;SDS011;18338;53.240;8.798;2023-05-10T07:53:54;9.85;;;8.95;;
31764;SDS011;18338;53.240;8.798;2023-05-10T07:56:25;9.57;;;8.68;;
31764;SDS011;18338;53.240;8.798;2023-05-10T07:58:55;10.15;;;9.15;;
31764;SDS011;18338;53.240;8.798;2023-05-10T08:01:22;9.90;;;8.35;;
31764;SDS011;18338;53.240;8.798;2023-05-10T08:03:49;9.88;;;8.93;;
31764;SDS011;18338;53.240;8.798;2023-05-10T08:06:17;8.65;;;7.93;;
31764;SDS011;18338;53.240;8.798;2023-05-10T08:08:45;10.00;;;9.00;;
31764;SDS011;18338;53.240;8.798;2023-05-10T08:11:18;9.30;;;8.50;;
31764;SDS011;18338;53.240;8.798;2023-05-10T08:13:46;10.55;;;9.52;;
31764;SDS011;18338;53.240;8.798;2023-05-10T08:16:14;9.75;;;8.75;;
31764;SDS011;18338;53.240;8.798;2023-05-10T08:18:42;10.20;;;9.20;;
31764;SDS011;18338;53.240;8.798;2023-05-10T08:21:11;10.23;;;9.27;;
31764;SDS011;18338;53.240;8.798;2023-05-10T08:23:37;9.57;;;8.68;;
31764;SDS011;18338;53.240;8.798;2023-05-10T08:26:04;8.35;;;7.60;;
31764;SDS011;18338;53.240;8.798;2023-05-10T08:28:31;7.93;;;7.22;;
31764;SDS011;18338;53.240;8.798;2023-05-10T08:30:57;6.78;;;6.18;;
31764;SDS011;18338;53.240;8.798;2023-05-10T08:33:24;6.95;;;6.25;;
31764;SDS011;18338;53.240;8.798;2023-05-10T08:35:51;5.60;;;5.10;;
31764;SDS011;18338;53.240;8.798;2023-05-10T08:38:18;5.22;;;4.80;;
31764;SDS011;18338;53.240;8.798;2023-05-10T08:40:44;4.90;;;4.50;;
31764;SDS011;18338;53.240;8.798;2023-05-10T08:43:12;3.92;;;3.63;;
31764;SDS011;18338;53.240;8.798;2023-05-10T08:45:42;4.43;;;4.03;;
31764;SDS011;18338;53.240;8.798;2023-05-10T08:48:11;3.60;;;3.30;;
31764;SDS011;18338;53.240;8.798;2023-05-10T08:50:38;4.30;;;3.90;;
31764;SDS011;18338;53.240;8.798;2023-05-10T08:53:09;4.57;;;4.18;;
31764;SDS011;18338;53.240;8.798;2023-05-10T08:55:37;4.90;;;4.50;;
31764;SDS011;18338;53.240;8.798;2023-05-10T08:58:06;4.25;;;3.95;;
31764;SDS011;18338;53.240;8.798;2023-05-10T09:00:33;4.78;;;4.30;;
31764;SDS011;18338;53.240;8.798;2023-05-10T09:03:02;4.25;;;3.85;;
31764;SDS011;18338;53.240;8.798;2023-05-10T09:05:30;4.45;;;4.05;;
31764;SDS011;18338;53.240;8.798;2023-05-10T09:07:56;4.63;;;4.22;;
31764;SDS011;18338;53.240;8.798;2023-05-10T09:10:24;4.40;;;3.60;;
31764;SDS011;18338;53.240;8.798;2023-05-10T09:12:53;3.78;;;3.47;;
31764;SDS011;18338;53.240;8.798;2023-05-10T09:15:24;3.33;;;3.03;;
31764;SDS011;18338;53.240;8.798;2023-05-10T09:17:51;3.45;;;3.15;;
31764;SDS011;18338;53.240;8.798;2023-05-10T09:20:18;3.20;;;2.90;;
31764;SDS011;18338;53.240;8.798;2023-05-10T09:22:45;2.80;;;2.60;;
31764;SDS011;18338;53.240;8.798;2023-05-10T09:25:13;2.95;;;2.75;;
31764;SDS011;18338;53.240;8.798;2023-05-10T09:27:44;2.47;;;1.95;;
31764;SDS011;18338;53.240;8.798;2023-05-10T09:32:47;2.13;;;1.92;;
31764;SDS011;18338;53.240;8.798;2023-05-10T09:35:15;2.40;;;2.20;;
31764;SDS011;18338;53.240;8.798;2023-05-10T09:37:44;2.35;;;1.95;;
31764;SDS011;18338;53.240;8.798;2023-05-10T09:40:15;1.88;;;1.55;;
31764;SDS011;18338;53.240;8.798;2023-05-10T09:45:36;2.10;;;1.90;;
31764;SDS011;18338;53.240;8.798;2023-05-10T09:48:04;2.00;;;1.80;;
31764;SDS011;18338;53.240;8.798;2023-05-10T09:50:31;2.97;;;2.50;;
31764;SDS011;18338;53.240;8.798;2023-05-10T09:52:59;2.60;;;2.25;;
31764;SDS011;18338;53.240;8.798;2023-05-10T09:55:40;2.78;;;1.90;;
31764;SDS011;18338;53.240;8.798;2023-05-10T09:58:12;1.98;;;1.45;;
31764;SDS011;18338;53.240;8.798;2023-05-10T10:00:41;1.20;;;1.10;;
31764;SDS011;18338;53.240;8.798;2023-05-10T10:03:13;1.05;;;1.00;;
31764;SDS011;18338;53.240;8.798;2023-05-10T10:05:41;1.33;;;0.90;;
31764;SDS011;18338;53.240;8.798;2023-05-10T10:08:09;1.33;;;0.85;;
31764;SDS011;18338;53.240;8.798;2023-05-10T10:10:38;1.33;;;0.90;;
31764;SDS011;18338;53.240;8.798;2023-05-10T10:13:12;1.20;;;1.10;;
31764;SDS011;18338;53.240;8.798;2023-05-10T10:15:39;1.30;;;1.20;;
31764;SDS011;18338;53.240;8.798;2023-05-10T10:18:05;1.13;;;1.08;;
31764;SDS011;18338;53.240;8.798;2023-05-10T10:20:34;1.35;;;1.25;;
31764;SDS011;18338;53.240;8.798;2023-05-10T10:23:03;2.03;;;1.40;;
31764;SDS011;18338;53.240;8.798;2023-05-10T10:25:30;1.92;;;1.48;;
31764;SDS011;18338;53.240;8.798;2023-05-10T10:28:09;1.80;;;1.50;;
31764;SDS011;18338;53.240;8.798;2023-05-10T10:30:56;2.53;;;1.60;;
31764;SDS011;18338;53.240;8.798;2023-05-10T10:36:23;2.10;;;1.95;;
31764;SDS011;18338;53.240;8.798;2023-05-10T10:41:32;2.83;;;2.63;;
31764;SDS011;18338;53.240;8.798;2023-05-10T10:49:32;3.40;;;2.58;;
31764;SDS011;18338;53.240;8.798;2023-05-10T10:52:12;2.75;;;2.00;;
31764;SDS011;18338;53.240;8.798;2023-05-10T10:54:50;2.50;;;2.00;;
31764;SDS011;18338;53.240;8.798;2023-05-10T10:57:18;2.38;;;1.20;;
31764;SDS011;18338;53.240;8.798;2023-05-10T10:59:47;1.40;;;1.30;;
31764;SDS011;18338;53.240;8.798;2023-05-10T11:02:33;1.63;;;1.30;;
31764;SDS011;18338;53.240;8.798;2023-05-10T11:05:22;1.10;;;1.00;;
31764;SDS011;18338;53.240;8.798;2023-05-10T11:07:56;1.50;;;1.33;;
31764;SDS011;18338;53.240;8.798;2023-05-10T11:10:25;1.52;;;1.20;;
31764;SDS011;18338;53.240;8.798;2023-05-10T11:12:58;1.70;;;1.60;;
31764;SDS011;18338;53.240;8.798;2023-05-10T11:15:31;2.88;;;1.60;;
31764;SDS011;18338;53.240;8.798;2023-05-10T11:17:58;1.70;;;1.38;;
31764;SDS011;18338;53.240;8.798;2023-05-10T11:20:28;1.90;;;1.63;;
31764;SDS011;18338;53.240;8.798;2023-05-10T11:23:11;2.33;;;1.60;;
31764;SDS011;18338;53.240;8.798;2023-05-10T11:25:42;1.67;;;1.30;;
31764;SDS011;18338;53.240;8.798;2023-05-10T11:28:10;1.65;;;1.55;;
31764;SDS011;18338;53.240;8.798;2023-05-10T11:30:42;1.30;;;1.02;;
31764;SDS011;18338;53.240;8.798;2023-05-10T11:33:14;1.50;;;1.40;;
31764;SDS011;18338;53.240;8.798;2023-05-10T11:35:43;2.65;;;1.50;;
31764;SDS011;18338;53.240;8.798;2023-05-10T11:38:10;2.13;;;1.40;;
31764;SDS011;18338;53.240;8.798;2023-05-10T11:40:39;1.85;;;1.73;;
31764;SDS011;18338;53.240;8.798;2023-05-10T11:43:07;2.10;;;1.80;;
31764;SDS011;18338;53.240;8.798;2023-05-10T11:45:36;1.90;;;1.80;;
31764;SDS011;18338;53.240;8.798;2023-05-10T11:48:03;1.80;;;1.70;;
31764;SDS011;18338;53.240;8.798;2023-05-10T11:50:30;1.90;;;1.77;;
31764;SDS011;18338;53.240;8.798;2023-05-10T11:52:57;1.98;;;1.75;;
31764;SDS011;18338;53.240;8.798;2023-05-10T11:55:24;1.10;;;1.00;;
31764;SDS011;18338;53.240;8.798;2023-05-10T11:57:51;1.30;;;1.20;;
31764;SDS011;18338;53.240;8.798;2023-05-10T12:00:19;1.23;;;1.13;;
31764;SDS011;18338;53.240;8.798;2023-05-10T12:02:46;1.25;;;1.00;;
31764;SDS011;18338;53.240;8.798;2023-05-10T12:05:14;1.27;;;0.90;;
31764;SDS011;18338;53.240;8.798;2023-05-10T12:07:41;0.85;;;0.80;;
31764;SDS011;18338;53.240;8.798;2023-05-10T12:10:09;1.38;;;0.57;;
31764;SDS011;18338;53.240;8.798;2023-05-10T12:12:42;0.68;;;0.55;;
31764;SDS011;18338;53.240;8.798;2023-05-10T12:15:31;0.52;;;0.52;;
31764;SDS011;18338;53.240;8.798;2023-05-10T12:17:57;0.70;;;0.70;;
31764;SDS011;18338;53.240;8.798;2023-05-10T12:20:26;1.30;;;1.00;;
31764;SDS011;18338;53.240;8.798;2023-05-10T12:22:55;1.35;;;0.90;;
31764;SDS011;18338;53.240;8.798;2023-05-10T12:25:29;2.17;;;0.70;;
31764;SDS011;18338;53.240;8.798;2023-05-10T12:27:57;0.50;;;0.50;;
31764;SDS011;18338;53.240;8.798;2023-05-10T12:30:27;0.50;;;0.45;;
31764;SDS011;18338;53.240;8.798;2023-05-10T12:33:02;1.20;;;0.50;;
31764;SDS011;18338;53.240;8.798;2023-05-10T12:35:46;0.90;;;0.68;;
31764;SDS011;18338;53.240;8.798;2023-05-10T12:41:17;0.70;;;0.70;;
31764;SDS011;18338;53.240;8.798;2023-05-10T12:43:44;0.60;;;0.60;;
31764;SDS011;18338;53.240;8.798;2023-05-10T12:46:12;1.10;;;0.70;;
31764;SDS011;18338;53.240;8.798;2023-05-10T12:48:41;0.70;;;0.70;;
31764;SDS011;18338;53.240;8.798;2023-05-10T12:51:08;0.80;;;0.63;;
31764;SDS011;18338;53.240;8.798;2023-05-10T12:53:38;0.70;;;0.70;;
31764;SDS011;18338;53.240;8.798;2023-05-10T12:56:09;0.65;;;0.60;;
31764;SDS011;18338;53.240;8.798;2023-05-10T12:58:36;0.60;;;0.60;;
31764;SDS011;18338;53.240;8.798;2023-05-10T13:01:03;0.60;;;0.60;;
31764;SDS011;18338;53.240;8.798;2023-05-10T13:03:30;0.57;;;0.57;;
31764;SDS011;18338;53.240;8.798;2023-05-10T13:05:57;0.30;;;0.30;;
31764;SDS011;18338;53.240;8.798;2023-05-10T13:08:24;0.50;;;0.40;;
31764;SDS011;18338;53.240;8.798;2023-05-10T13:10:51;0.38;;;0.38;;
31764;SDS011;18338;53.240;8.798;2023-05-10T13:13:18;1.05;;;0.50;;
31764;SDS011;18338;53.240;8.798;2023-05-10T13:15:44;0.50;;;0.50;;
31764;SDS011;18338;53.240;8.798;2023-05-10T13:18:11;0.70;;;0.70;;
31764;SDS011;18338;53.240;8.798;2023-05-10T13:20:38;0.50;;;0.50;;
31764;SDS011;18338;53.240;8.798;2023-05-10T13:23:04;1.00;;;0.60;;
31764;SDS011;18338;53.240;8.798;2023-05-10T13:25:31;1.17;;;0.70;;
31764;SDS011;18338;53.240;8.798;2023-05-10T13:27:57;1.00;;;0.95;;
31764;SDS011;18338;53.240;8.798;2023-05-10T13:30:25;1.30;;;1.10;;
31764;SDS011;18338;53.240;8.798;2023-05-10T13:32:51;1.20;;;1.10;;
31764;SDS011;18338;53.240;8.798;2023-05-10T13:35:18;1.33;;;1.23;;
31764;SDS011;18338;53.240;8.798;2023-05-10T13:37:45;1.60;;;1.50;;
31764;SDS011;18338;53.240;8.798;2023-05-10T13:40:11;1.70;;;1.60;;
31764;SDS011;18338;53.240;8.798;2023-05-10T13:42:38;2.08;;;1.98;;
31764;SDS011;18338;53.240;8.798;2023-05-10T13:45:05;2.72;;;2.03;;
31764;SDS011;18338;53.240;8.798;2023-05-10T13:47:32;2.33;;;2.13;;
31764;SDS011;18338;53.240;8.798;2023-05-10T13:49:59;2.35;;;2.15;;
31764;SDS011;18338;53.240;8.798;2023-05-10T13:52:27;2.30;;;2.10;;
31764;SDS011;18338;53.240;8.798;2023-05-10T13:54:54;2.35;;;2.13;;
31764;SDS011;18338;53.240;8.798;2023-05-10T13:57:21;2.60;;;2.40;;
31764;SDS011;18338;53.240;8.798;2023-05-10T13:59:49;3.42;;;3.13;;
31764;SDS011;18338;53.240;8.798;2023-05-10T14:02:16;3.65;;;3.15;;
31764;SDS011;18338;53.240;8.798;2023-05-10T14:04:42;3.78;;;3.47;;
31764;SDS011;18338;53.240;8.798;2023-05-10T14:07:09;3.85;;;3.35;;
31764;SDS011;18338;53.240;8.798;2023-05-10T14:09:36;4.38;;;3.97;;
31764;SDS011;18338;53.240;8.798;2023-05-10T14:12:02;3.90;;;3.60;;
31764;SDS011;18338;53.240;8.798;2023-05-10T14:14:29;3.70;;;3.40;;
31764;SDS011;18338;53.240;8.798;2023-05-10T14:16:56;2.92;;;2.72;;
31764;SDS011;18338;53.240;8.798;2023-05-10T14:19:22;3.20;;;3.00;;
31764;SDS011;18338;53.240;8.798;2023-05-10T14:21:49;3.10;;;2.80;;
31764;SDS011;18338;53.240;8.798;2023-05-10T14:24:17;2.78;;;2.15;;
31764;SDS011;18338;53.240;8.798;2023-05-10T14:26:44;2.65;;;2.45;;
31764;SDS011;18338;53.240;8.798;2023-05-10T14:29:11;2.88;;;2.67;;
31764;SDS011;18338;53.240;8.798;2023-05-10T14:31:38;3.50;;;3.20;;
31764;SDS011;18338;53.240;8.798;2023-05-10T14:34:04;3.10;;;2.90;;
31764;SDS011;18338;53.240;8.798;2023-05-10T14:36:31;2.80;;;2.60;;
31764;SDS011;18338;53.240;8.798;2023-05-10T14:38:58;2.67;;;2.47;;
31764;SDS011;18338;53.240;8.798;2023-05-10T14:41:24;3.22;;;2.92;;
31764;SDS011;18338;53.240;8.798;2023-05-10T14:43:52;2.63;;;2.42;;
31764;SDS011;18338;53.240;8.798;2023-05-10T14:46:19;2.55;;;2.33;;
31764;SDS011;18338;53.240;8.798;2023-05-10T14:48:46;1.83;;;1.73;;
31764;SDS011;18338;53.240;8.798;2023-05-10T14:51:12;1.50;;;1.40;;
31764;SDS011;18338;53.240;8.798;2023-05-10T14:53:39;1.08;;;0.75;;
31764;SDS011;18338;53.240;8.798;2023-05-10T14:56:06;0.80;;;0.80;;
31764;SDS011;18338;53.240;8.798;2023-05-10T14:58:33;0.85;;;0.80;;
31764;SDS011;18338;53.240;8.798;2023-05-10T15:00:59;0.73;;;0.70;;
31764;SDS011;18338;53.240;8.798;2023-05-10T15:03:27;0.60;;;0.60;;
31764;SDS011;18338;53.240;8.798;2023-05-10T15:05:54;1.17;;;0.73;;
31764;SDS011;18338;53.240;8.798;2023-05-10T15:08:23;0.52;;;0.52;;
31764;SDS011;18338;53.240;8.798;2023-05-10T15:10:53;0.60;;;0.45;;
31764;SDS011;18338;53.240;8.798;2023-05-10T15:13:21;0.50;;;0.50;;
31764;SDS011;18338;53.240;8.798;2023-05-10T15:15:48;0.45;;;0.45;;
31764;SDS011;18338;53.240;8.798;2023-05-10T15:18:14;0.63;;;0.60;;